Time;durP1;ratioP1;P1;durP2;ratioP2;P2;SDS_P1;SDS_P2;PMS_P1;PMS_P2;Temp;Humidity;BMP_temperature;BMP_pressure;BME280_temperature;BME280_humidity;BME280_pressure;Samples;Min_cycle;Max_cycle;Signal;HPM_P1;HPM_P2
2022/03/02 00:01:14;;;;;;;13.03;5.47;;;;;;;;;;1687492;84;21056;-72
2022/03/02 00:03:39;;;;;;;13.28;6.12;;;;;;;;;;1707505;84;21009;-73
2022/03/02 00:06:05;;;;;;;10.60;5.85;;;;;;;;;;1707919;84;21508;-74
2022/03/02 00:08:32;;;;;;;11.33;5.25;;;;;;;;;;1707366;82;21052;-73
2022/03/02 00:10:58;;;;;;;11.70;5.25;;;;;;;;;;1692729;84;21040;-73
2022/03/02 00:13:26;;;;;;;12.98;5.80;;;;;;;;;;1712214;83;21190;-73
2022/03/02 00:15:52;;;;;;;7.40;4.00;;;;;;;;;;1694348;83;21193;-73
2022/03/02 00:18:20;;;;;;;13.05;6.17;;;;;;;;;;1722038;82;21052;-73
2022/03/02 00:20:46;;;;;;;10.13;5.25;;;;;;;;;;1712146;84;21565;-73
2022/03/02 00:23:14;;;;;;;12.95;5.92;;;;;;;;;;1701886;82;21087;-73
2022/03/02 00:25:40;;;;;;;10.32;5.50;;;;;;;;;;1685381;83;21048;-73
2022/03/02 00:28:06;;;;;;;14.20;5.95;;;;;;;;;;1655270;85;21077;-74
2022/03/02 00:30:32;;;;;;;14.30;5.92;;;;;;;;;;1633990;87;21069;-73
2022/03/02 00:32:59;;;;;;;12.25;6.30;;;;;;;;;;1716520;83;21029;-74
2022/03/02 00:35:25;;;;;;;16.35;6.92;;;;;;;;;;1712411;84;22236;-73
2022/03/02 00:37:51;;;;;;;11.35;6.08;;;;;;;;;;1712397;84;21020;-71
2022/03/02 00:40:17;;;;;;;12.95;5.95;;;;;;;;;;1691720;83;21102;-72
2022/03/02 00:42:44;;;;;;;13.53;6.00;;;;;;;;;;1718562;83;21099;-72
2022/03/02 00:45:10;;;;;;;14.35;6.28;;;;;;;;;;1698528;83;21040;-72
2022/03/02 00:47:37;;;;;;;14.68;6.03;;;;;;;;;;1737119;82;21054;-72
2022/03/02 00:50:03;;;;;;;12.05;5.45;;;;;;;;;;1720377;82;21471;-72
2022/03/02 00:52:30;;;;;;;11.83;5.28;;;;;;;;;;1733972;82;21026;-72
2022/03/02 00:54:56;;;;;;;16.45;6.83;;;;;;;;;;1716405;83;21058;-73
2022/03/02 00:57:22;;;;;;;11.83;5.55;;;;;;;;;;1714053;82;21672;-73
2022/03/02 00:59:49;;;;;;;12.85;5.85;;;;;;;;;;1714409;83;21548;-73
2022/03/02 01:02:15;;;;;;;13.70;7.00;;;;;;;;;;1713674;82;21077;-75
2022/03/02 01:04:41;;;;;;;15.13;7.17;;;;;;;;;;1715716;83;21075;-75
2022/03/02 01:07:07;;;;;;;12.73;6.00;;;;;;;;;;1713300;83;21069;-75
2022/03/02 01:09:33;;;;;;;12.63;6.35;;;;;;;;;;1695615;83;21073;-73
2022/03/02 01:11:59;;;;;;;11.97;6.03;;;;;;;;;;1716861;83;21038;-72
2022/03/02 01:14:25;;;;;;;14.60;6.70;;;;;;;;;;1691905;84;21099;-73
2022/03/02 01:16:52;;;;;;;16.17;6.05;;;;;;;;;;1711610;84;21060;-72
2022/03/02 01:19:18;;;;;;;14.00;6.05;;;;;;;;;;1711649;84;21684;-72
2022/03/02 01:21:44;;;;;;;15.95;6.95;;;;;;;;;;1711695;83;21124;-72
2022/03/02 01:24:10;;;;;;;20.90;8.13;;;;;;;;;;1711966;84;21147;-74
2022/03/02 01:26:37;;;;;;;18.42;7.58;;;;;;;;;;1690315;84;21056;-74
2022/03/02 01:29:03;;;;;;;20.57;7.60;;;;;;;;;;1689942;84;21056;-76
2022/03/02 01:31:29;;;;;;;14.03;6.62;;;;;;;;;;1690528;84;21016;-76
2022/03/02 01:33:56;;;;;;;12.33;5.65;;;;;;;;;;1691780;83;21068;-75
2022/03/02 01:36:22;;;;;;;15.18;6.58;;;;;;;;;;1690188;84;21066;-75
2022/03/02 01:38:48;;;;;;;16.07;7.45;;;;;;;;;;1710109;84;21005;-76
2022/03/02 01:41:15;;;;;;;16.02;6.25;;;;;;;;;;1711892;84;21024;-75
2022/03/02 01:43:41;;;;;;;13.10;6.33;;;;;;;;;;1718619;82;21028;-76
2022/03/02 01:46:07;;;;;;;15.90;7.25;;;;;;;;;;1715906;83;21072;-75
2022/03/02 01:48:32;;;;;;;17.00;7.20;;;;;;;;;;1695611;83;21590;-75
2022/03/02 01:50:59;;;;;;;17.40;7.58;;;;;;;;;;1698694;83;21554;-75
2022/03/02 01:53:25;;;;;;;17.62;7.08;;;;;;;;;;1688192;84;21099;-75
2022/03/02 01:55:51;;;;;;;15.23;6.92;;;;;;;;;;1716199;82;21165;-75
2022/03/02 01:58:17;;;;;;;18.95;7.08;;;;;;;;;;1712611;82;20999;-75
2022/03/02 02:03:33;;;;;;;18.55;7.87;;;;;;;;;;1734675;78;21165;-74
2022/03/02 02:06:00;;;;;;;16.57;7.80;;;;;;;;;;1715788;83;21025;-74
2022/03/02 02:08:27;;;;;;;17.37;7.12;;;;;;;;;;1688542;83;21021;-74
2022/03/02 02:10:55;;;;;;;17.50;7.75;;;;;;;;;;1715732;83;21539;-74
2022/03/02 02:13:23;;;;;;;16.95;7.90;;;;;;;;;;1715485;83;21084;-74
2022/03/02 02:15:50;;;;;;;13.20;6.42;;;;;;;;;;1714698;83;21116;-74
2022/03/02 02:18:16;;;;;;;15.70;7.35;;;;;;;;;;1688684;84;21004;-74
2022/03/02 02:20:42;;;;;;;15.48;7.03;;;;;;;;;;1715158;83;21105;-75
2022/03/02 02:23:08;;;;;;;18.80;8.25;;;;;;;;;;1715084;84;21064;-73
2022/03/02 02:25:34;;;;;;;20.17;7.40;;;;;;;;;;1715735;83;21587;-75
2022/03/02 02:28:00;;;;;;;17.87;7.12;;;;;;;;;;1716463;83;21040;-77
2022/03/02 02:30:26;;;;;;;16.85;7.30;;;;;;;;;;1715296;83;21052;-75
2022/03/02 02:32:52;;;;;;;15.15;7.37;;;;;;;;;;1715511;83;21093;-75
2022/03/02 02:35:19;;;;;;;19.32;7.53;;;;;;;;;;1689032;83;21032;-75
2022/03/02 02:37:46;;;;;;;14.60;6.67;;;;;;;;;;1715482;83;21842;-75
2022/03/02 02:40:16;;;;;;;18.15;7.00;;;;;;;;;;1715029;82;21100;-75
2022/03/02 02:42:44;;;;;;;20.02;8.05;;;;;;;;;;1715194;83;21032;-76
2022/03/02 02:45:10;;;;;;;15.70;5.95;;;;;;;;;;1715708;83;21037;-74
2022/03/02 02:47:35;;;;;;;18.52;8.15;;;;;;;;;;1718977;83;21044;-75
2022/03/02 02:50:03;;;;;;;19.45;8.43;;;;;;;;;;1720061;81;21116;-74
2022/03/02 02:52:31;;;;;;;18.60;7.58;;;;;;;;;;1714183;83;21048;-75
2022/03/02 02:54:57;;;;;;;15.48;6.22;;;;;;;;;;1715292;83;21057;-74
2022/03/02 02:57:23;;;;;;;17.85;7.08;;;;;;;;;;1706754;83;21553;-73
2022/03/02 02:59:49;;;;;;;15.83;6.67;;;;;;;;;;1668141;85;21053;-73
2022/03/02 03:02:15;;;;;;;18.10;6.80;;;;;;;;;;1655420;87;20994;-74
2022/03/02 03:04:40;;;;;;;17.65;7.30;;;;;;;;;;1661918;85;21160;-74
2022/03/02 03:07:07;;;;;;;18.12;6.90;;;;;;;;;;1652849;87;21110;-73
2022/03/02 03:09:33;;;;;;;18.15;7.17;;;;;;;;;;1652688;87;21046;-74
2022/03/02 03:11:59;;;;;;;20.15;7.05;;;;;;;;;;1653530;87;21122;-75
2022/03/02 03:14:25;;;;;;;13.80;5.45;;;;;;;;;;1663445;85;21129;-75
2022/03/02 03:16:51;;;;;;;17.95;6.78;;;;;;;;;;1651911;85;21065;-75
2022/03/02 03:19:17;;;;;;;17.80;6.62;;;;;;;;;;1648702;85;21126;-75
2022/03/02 03:21:43;;;;;;;17.67;7.30;;;;;;;;;;1643666;87;21541;-77
2022/03/02 03:24:09;;;;;;;16.57;7.87;;;;;;;;;;1658317;85;21020;-77
2022/03/02 03:26:35;;;;;;;19.15;7.92;;;;;;;;;;1668439;85;21028;-76
2022/03/02 03:29:01;;;;;;;17.17;8.15;;;;;;;;;;1678068;85;21122;-74
2022/03/02 03:31:29;;;;;;;19.55;7.85;;;;;;;;;;1710051;84;21029;-76
2022/03/02 03:33:55;;;;;;;17.45;8.23;;;;;;;;;;1710309;84;21519;-77
2022/03/02 03:36:21;;;;;;;18.77;9.03;;;;;;;;;;1681922;84;21096;-75
2022/03/02 03:38:46;;;;;;;18.23;7.28;;;;;;;;;;1686768;84;21029;-75
2022/03/02 03:41:12;;;;;;;17.27;7.00;;;;;;;;;;1690275;84;21077;-76
2022/03/02 03:43:38;;;;;;;15.45;6.35;;;;;;;;;;1688008;84;21643;-76
2022/03/02 03:46:05;;;;;;;16.27;6.20;;;;;;;;;;1710244;84;21077;-76
2022/03/02 03:48:31;;;;;;;15.45;6.45;;;;;;;;;;1711221;84;21085;-76
2022/03/02 03:50:58;;;;;;;20.70;9.30;;;;;;;;;;1705975;84;21068;-76
2022/03/02 03:53:24;;;;;;;19.82;8.50;;;;;;;;;;1683020;84;21128;-75
2022/03/02 03:55:50;;;;;;;16.85;6.87;;;;;;;;;;1661954;85;21125;-76
2022/03/02 03:58:16;;;;;;;18.52;7.15;;;;;;;;;;1682417;85;21049;-75
2022/03/02 04:00:42;;;;;;;17.27;7.37;;;;;;;;;;1701862;84;21089;-77
2022/03/02 04:03:09;;;;;;;13.78;6.45;;;;;;;;;;1684431;84;21670;-77
2022/03/02 04:05:35;;;;;;;17.10;8.63;;;;;;;;;;1682155;83;21644;-78
2022/03/02 04:08:01;;;;;;;18.73;7.58;;;;;;;;;;1713172;83;21087;-74
2022/03/02 04:10:28;;;;;;;17.95;7.30;;;;;;;;;;1693772;83;21638;-75
2022/03/02 04:12:56;;;;;;;18.60;6.80;;;;;;;;;;1692684;83;21021;-73
2022/03/02 04:15:22;;;;;;;20.65;8.20;;;;;;;;;;1674038;85;21164;-73
2022/03/02 04:17:48;;;;;;;16.90;7.25;;;;;;;;;;1689741;85;21547;-75
2022/03/02 04:20:14;;;;;;;17.30;7.25;;;;;;;;;;1675018;83;21069;-75
2022/03/02 04:22:41;;;;;;;19.82;7.97;;;;;;;;;;1716337;83;21077;-76
2022/03/02 04:25:07;;;;;;;15.38;5.92;;;;;;;;;;1715180;83;21041;-75
2022/03/02 04:27:33;;;;;;;16.82;6.83;;;;;;;;;;1686843;83;21068;-74
2022/03/02 04:30:01;;;;;;;17.77;7.83;;;;;;;;;;1670574;83;21403;-74
2022/03/02 04:32:27;;;;;;;15.48;6.37;;;;;;;;;;1712540;83;21512;-74
2022/03/02 04:34:54;;;;;;;20.12;8.23;;;;;;;;;;1673305;83;21131;-75
2022/03/02 04:37:20;;;;;;;15.85;6.55;;;;;;;;;;1709029;83;21092;-74
2022/03/02 04:39:45;;;;;;;15.35;6.33;;;;;;;;;;1707985;83;21001;-74
2022/03/02 04:42:11;;;;;;;13.28;5.42;;;;;;;;;;1711022;83;21012;-74
2022/03/02 04:44:37;;;;;;;20.90;7.60;;;;;;;;;;1694448;83;21099;-74
2022/03/02 04:47:04;;;;;;;22.05;7.83;;;;;;;;;;1717596;83;21056;-75
2022/03/02 04:49:31;;;;;;;18.67;7.22;;;;;;;;;;1687989;83;21559;-75
2022/03/02 04:51:56;;;;;;;13.32;5.53;;;;;;;;;;1715255;83;21025;-74
2022/03/02 04:57:08;;;;;;;18.60;7.08;;;;;;;;;;1703732;83;21512;-76
2022/03/02 04:59:34;;;;;;;19.95;7.75;;;;;;;;;;1712872;83;21088;-76
2022/03/02 05:02:01;;;;;;;17.90;7.80;;;;;;;;;;1695686;83;21099;-75
2022/03/02 05:04:27;;;;;;;14.63;6.80;;;;;;;;;;1710299;82;21088;-75
2022/03/02 05:06:54;;;;;;;16.15;6.90;;;;;;;;;;1692614;85;21035;-75
2022/03/02 05:09:20;;;;;;;13.18;5.90;;;;;;;;;;1689358;85;21571;-74
2022/03/02 05:11:46;;;;;;;14.90;7.00;;;;;;;;;;1687581;85;21053;-74
2022/03/02 05:14:13;;;;;;;18.42;6.72;;;;;;;;;;1687546;85;21091;-74
2022/03/02 05:16:39;;;;;;;19.73;7.70;;;;;;;;;;1668967;85;21068;-76
2022/03/02 05:19:04;;;;;;;16.93;6.95;;;;;;;;;;1694946;85;21080;-74
2022/03/02 05:21:31;;;;;;;15.05;7.17;;;;;;;;;;1673016;83;21049;-76
2022/03/02 05:23:56;;;;;;;18.65;8.00;;;;;;;;;;1694265;83;21014;-75
2022/03/02 05:26:23;;;;;;;12.80;6.12;;;;;;;;;;1669597;85;21068;-76
2022/03/02 05:28:49;;;;;;;17.60;7.03;;;;;;;;;;1694284;85;21012;-75
2022/03/02 05:31:15;;;;;;;12.20;6.03;;;;;;;;;;1694980;85;21072;-74
2022/03/02 05:33:43;;;;;;;22.17;8.55;;;;;;;;;;1686604;85;21600;-75
2022/03/02 05:36:09;;;;;;;15.00;6.37;;;;;;;;;;1687516;85;21045;-76
2022/03/02 05:38:34;;;;;;;14.58;6.00;;;;;;;;;;1690920;85;20969;-75
2022/03/02 05:41:02;;;;;;;16.25;6.90;;;;;;;;;;1687035;85;21016;-74
2022/03/02 05:43:28;;;;;;;18.70;6.25;;;;;;;;;;1688092;85;21093;-72
2022/03/02 05:45:54;;;;;;;17.82;7.12;;;;;;;;;;1690277;85;21088;-73
2022/03/02 05:48:20;;;;;;;18.73;8.08;;;;;;;;;;1662555;85;21076;-74
2022/03/02 05:50:46;;;;;;;13.32;6.53;;;;;;;;;;1687275;85;21091;-74
2022/03/02 05:53:12;;;;;;;15.13;6.70;;;;;;;;;;1692424;85;20996;-74
2022/03/02 05:55:38;;;;;;;19.10;8.95;;;;;;;;;;1688762;85;21547;-74
2022/03/02 05:58:04;;;;;;;19.57;7.67;;;;;;;;;;1661732;85;21012;-74
2022/03/02 06:00:31;;;;;;;18.17;8.08;;;;;;;;;;1687685;85;21513;-74
2022/03/02 06:02:58;;;;;;;15.25;6.47;;;;;;;;;;1686701;84;21115;-74
2022/03/02 06:05:24;;;;;;;17.10;7.22;;;;;;;;;;1700983;83;21140;-74
2022/03/02 06:07:50;;;;;;;16.48;7.62;;;;;;;;;;1711051;83;21052;-74
2022/03/02 06:10:16;;;;;;;14.47;7.25;;;;;;;;;;1688709;83;21001;-74
2022/03/02 06:12:43;;;;;;;21.07;6.80;;;;;;;;;;1690272;83;21564;-74
2022/03/02 06:15:10;;;;;;;17.07;7.33;;;;;;;;;;1713458;83;21006;-75
2022/03/02 06:17:39;;;;;;;10.25;5.50;;;;;;;;;;1684475;83;21048;-74
2022/03/02 06:20:06;;;;;;;11.33;4.92;;;;;;;;;;1715039;83;21515;-75
2022/03/02 06:22:32;;;;;;;16.85;6.53;;;;;;;;;;1675567;84;21047;-73
2022/03/02 06:25:01;;;;;;;17.00;7.42;;;;;;;;;;1677439;83;21049;-74
2022/03/02 06:27:28;;;;;;;16.80;7.45;;;;;;;;;;1714341;83;21108;-73
2022/03/02 06:29:54;;;;;;;17.65;7.00;;;;;;;;;;1703997;83;21072;-74
2022/03/02 06:32:21;;;;;;;14.03;6.08;;;;;;;;;;1675398;85;21068;-74
2022/03/02 06:34:47;;;;;;;16.67;6.55;;;;;;;;;;1704876;83;21076;-75
2022/03/02 06:37:14;;;;;;;19.20;7.42;;;;;;;;;;1715216;83;21135;-73
2022/03/02 06:39:42;;;;;;;15.30;7.45;;;;;;;;;;1713170;83;21555;-75
2022/03/02 06:42:11;;;;;;;12.53;6.55;;;;;;;;;;1712592;83;21002;-70
2022/03/02 06:44:54;;;;;;;10.53;5.12;;;;;;;;;;1676876;84;21024;-73
2022/03/02 06:47:27;;;;;;;12.33;5.40;;;;;;;;;;1710677;84;21564;-72
2022/03/02 06:50:10;;;;;;;13.18;5.70;;;;;;;;;;1711803;83;21035;-73
2022/03/02 06:52:43;;;;;;;13.00;5.45;;;;;;;;;;1707186;83;21072;-71
2022/03/02 06:55:16;;;;;;;16.07;6.22;;;;;;;;;;1700627;83;21009;-72
2022/03/02 06:57:44;;;;;;;15.38;7.15;;;;;;;;;;1720462;83;21117;-72
2022/03/02 07:02:39;;;;;;;14.07;6.12;;;;;;;;;;1819661;78;23925;-73
2022/03/02 07:05:07;;;;;;;12.58;7.20;;;;;;;;;;1761529;81;21126;-71
2022/03/02 07:07:34;;;;;;;18.07;6.58;;;;;;;;;;1731951;81;21075;-71
2022/03/02 07:10:04;;;;;;;13.58;6.35;;;;;;;;;;1782506;79;21046;-71
2022/03/02 07:12:30;;;;;;;15.58;6.90;;;;;;;;;;1794115;79;21118;-73
2022/03/02 07:14:57;;;;;;;13.70;5.70;;;;;;;;;;1766143;80;21057;-74
2022/03/02 07:17:23;;;;;;;13.85;6.42;;;;;;;;;;1755855;81;20981;-74
2022/03/02 07:19:50;;;;;;;12.33;5.85;;;;;;;;;;1716746;82;21560;-74
2022/03/02 07:22:16;;;;;;;12.90;6.28;;;;;;;;;;1700372;83;21040;-73
2022/03/02 07:24:46;;;;;;;14.40;6.95;;;;;;;;;;1721115;83;21124;-74
2022/03/02 07:27:13;;;;;;;13.60;6.33;;;;;;;;;;1721302;83;21044;-73
2022/03/02 07:29:39;;;;;;;12.93;6.40;;;;;;;;;;1716311;83;21006;-73
2022/03/02 07:32:05;;;;;;;17.05;7.50;;;;;;;;;;1728523;81;20976;-73
2022/03/02 07:34:32;;;;;;;19.37;8.43;;;;;;;;;;1746778;81;21014;-73
2022/03/02 07:36:59;;;;;;;14.98;6.78;;;;;;;;;;1731318;82;21023;-74
2022/03/02 07:39:28;;;;;;;17.92;8.95;;;;;;;;;;1726808;83;21031;-78
2022/03/02 07:41:56;;;;;;;19.50;8.45;;;;;;;;;;1725517;82;21058;-75
2022/03/02 07:44:22;;;;;;;18.32;7.70;;;;;;;;;;1740106;80;21080;-73
2022/03/02 07:46:48;;;;;;;13.83;7.12;;;;;;;;;;1747159;80;20988;-75
2022/03/02 07:49:15;;;;;;;15.03;5.95;;;;;;;;;;1747859;80;21492;-75
2022/03/02 07:51:41;;;;;;;19.37;7.30;;;;;;;;;;1706629;84;20984;-75
2022/03/02 07:54:09;;;;;;;16.90;7.50;;;;;;;;;;1732020;83;21065;-76
2022/03/02 07:56:36;;;;;;;17.85;8.48;;;;;;;;;;1726073;83;21026;-76
2022/03/02 07:59:03;;;;;;;17.27;7.87;;;;;;;;;;1719365;83;21100;-79
2022/03/02 08:01:29;;;;;;;15.85;6.50;;;;;;;;;;1711515;83;21539;-76
2022/03/02 08:03:58;;;;;;;16.85;6.25;;;;;;;;;;1764932;81;21101;-73
2022/03/02 08:06:24;;;;;;;14.65;5.92;;;;;;;;;;1714196;80;21533;-74
2022/03/02 08:08:51;;;;;;;17.48;7.20;;;;;;;;;;1747875;80;21039;-74
2022/03/02 08:11:18;;;;;;;17.85;7.20;;;;;;;;;;1746932;81;21556;-74
2022/03/02 08:13:44;;;;;;;11.55;5.50;;;;;;;;;;1766024;81;21064;-75
2022/03/02 08:16:10;;;;;;;12.85;5.05;;;;;;;;;;1753249;81;21021;-74
2022/03/02 08:18:36;;;;;;;12.40;5.45;;;;;;;;;;1760916;80;21058;-73
2022/03/02 08:21:02;;;;;;;12.43;5.65;;;;;;;;;;1765259;81;21136;-77
2022/03/02 08:23:29;;;;;;;12.73;5.53;;;;;;;;;;1748162;82;21659;-78
2022/03/02 08:25:55;;;;;;;14.15;6.33;;;;;;;;;;1761350;81;21506;-76
2022/03/02 08:28:22;;;;;;;16.65;6.55;;;;;;;;;;1730818;82;21077;-75
2022/03/02 08:30:49;;;;;;;15.48;7.30;;;;;;;;;;1762386;81;21020;-76
2022/03/02 08:33:17;;;;;;;16.20;6.35;;;;;;;;;;1749156;81;21131;-76
2022/03/02 08:35:43;;;;;;;16.45;6.97;;;;;;;;;;1766297;79;21022;-75
2022/03/02 08:38:09;;;;;;;15.35;6.40;;;;;;;;;;1764738;80;20994;-75
2022/03/02 08:40:37;;;;;;;17.17;7.87;;;;;;;;;;1756508;81;21320;-73
2022/03/02 08:43:04;;;;;;;13.83;5.97;;;;;;;;;;1772688;81;21067;-75
2022/03/02 08:45:32;;;;;;;13.98;6.72;;;;;;;;;;1765976;80;21537;-75
2022/03/02 08:48:00;;;;;;;14.50;5.97;;;;;;;;;;1766503;81;21026;-73
2022/03/02 08:50:27;;;;;;;14.20;5.95;;;;;;;;;;1763610;81;21123;-73
2022/03/02 08:52:53;;;;;;;16.60;6.37;;;;;;;;;;1767140;81;21263;-80
2022/03/02 08:55:21;;;;;;;12.58;5.62;;;;;;;;;;1704530;83;22091;-76
2022/03/02 08:57:47;;;;;;;13.90;5.22;;;;;;;;;;1765026;81;21009;-79
2022/03/02 09:00:14;;;;;;;12.85;5.78;;;;;;;;;;1767578;81;21013;-76
2022/03/02 09:02:41;;;;;;;16.20;6.67;;;;;;;;;;1708664;82;21603;-80
2022/03/02 09:05:07;;;;;;;15.88;6.87;;;;;;;;;;1701210;82;21076;-77
2022/03/02 09:07:33;;;;;;;16.10;6.25;;;;;;;;;;1728905;82;21025;-76
2022/03/02 09:10:00;;;;;;;14.33;5.55;;;;;;;;;;1733778;82;21008;-77
2022/03/02 09:12:26;;;;;;;13.85;5.67;;;;;;;;;;1745182;81;21024;-73
2022/03/02 09:14:53;;;;;;;15.45;6.60;;;;;;;;;;1736974;82;21076;-75
2022/03/02 09:17:24;;;;;;;15.78;6.45;;;;;;;;;;1707776;82;21080;-75
2022/03/02 09:19:47;;;;;;;11.15;5.28;;;;;;;;;;1726209;82;20994;-75
2022/03/02 09:22:13;;;;;;;11.80;5.15;;;;;;;;;;1702940;82;21017;-74
2022/03/02 09:24:40;;;;;;;15.50;5.97;;;;;;;;;;1741089;81;21079;-74
2022/03/02 09:27:07;;;;;;;14.28;5.87;;;;;;;;;;1703108;83;21021;-75
2022/03/02 09:29:32;;;;;;;11.95;5.55;;;;;;;;;;1739920;81;21024;-74
2022/03/02 09:31:59;;;;;;;12.93;5.80;;;;;;;;;;1711106;82;21042;-75
2022/03/02 09:34:26;;;;;;;9.98;5.70;;;;;;;;;;1718044;83;21035;-74
2022/03/02 09:36:53;;;;;;;13.20;6.22;;;;;;;;;;1719761;82;21099;-74
2022/03/02 09:39:19;;;;;;;16.27;7.40;;;;;;;;;;1736716;82;21016;-74
2022/03/02 09:41:49;;;;;;;14.13;6.85;;;;;;;;;;1718042;82;21053;-74
2022/03/02 09:44:20;;;;;;;11.85;5.47;;;;;;;;;;1725292;82;21034;-73
2022/03/02 09:46:50;;;;;;;12.95;5.83;;;;;;;;;;1702834;82;21013;-74
2022/03/02 09:49:18;;;;;;;11.57;5.65;;;;;;;;;;1701596;82;21083;-73
2022/03/02 09:51:45;;;;;;;10.40;5.05;;;;;;;;;;1730444;82;21017;-75
2022/03/02 09:54:11;;;;;;;11.88;5.03;;;;;;;;;;1707490;82;21531;-76
2022/03/02 09:56:37;;;;;;;12.75;5.67;;;;;;;;;;1690544;82;21013;-74
2022/03/02 09:59:04;;;;;;;14.10;7.37;;;;;;;;;;1708133;83;20944;-74
2022/03/02 10:01:31;;;;;;;12.15;5.95;;;;;;;;;;1744213;80;21017;-73
2022/03/02 10:03:57;;;;;;;14.40;6.58;;;;;;;;;;1756219;80;21584;-74
2022/03/02 10:06:23;;;;;;;11.53;5.65;;;;;;;;;;1773581;80;21555;-74
2022/03/02 10:08:51;;;;;;;13.93;5.92;;;;;;;;;;1774720;80;21603;-73
2022/03/02 10:11:24;;;;;;;9.58;5.00;;;;;;;;;;1741949;81;21020;-73
2022/03/02 10:13:51;;;;;;;11.43;5.25;;;;;;;;;;1759901;80;21638;-73
2022/03/02 10:16:22;;;;;;;11.57;6.12;;;;;;;;;;1762268;80;21138;-74
2022/03/02 10:18:53;;;;;;;11.83;5.75;;;;;;;;;;1775545;79;21087;-72
2022/03/02 10:21:20;;;;;;;12.28;5.70;;;;;;;;;;1716745;82;21026;-73
2022/03/02 10:23:46;;;;;;;10.00;5.17;;;;;;;;;;1717143;83;21950;-73
2022/03/02 10:26:15;;;;;;;10.93;4.80;;;;;;;;;;1710633;84;21016;-74
2022/03/02 10:28:59;;;;;;;13.15;6.22;;;;;;;;;;1737696;82;21639;-73
2022/03/02 10:31:31;;;;;;;7.05;3.67;;;;;;;;;;1735968;81;21046;-73
2022/03/02 10:33:59;;;;;;;9.08;4.35;;;;;;;;;;1707776;83;21031;-74
2022/03/02 10:36:27;;;;;;;10.38;5.45;;;;;;;;;;1733241;82;21525;-72
2022/03/02 10:39:01;;;;;;;11.57;4.75;;;;;;;;;;1734360;82;21054;-72
2022/03/02 10:41:28;;;;;;;11.00;5.05;;;;;;;;;;1709504;82;21156;-75
2022/03/02 10:43:59;;;;;;;12.20;6.15;;;;;;;;;;1676812;84;21093;-72
2022/03/02 10:46:25;;;;;;;8.53;3.83;;;;;;;;;;1722067;82;21562;-72
2022/03/02 10:48:57;;;;;;;11.15;5.25;;;;;;;;;;1719685;82;21029;-73
2022/03/02 10:51:23;;;;;;;8.88;4.75;;;;;;;;;;1721262;82;21085;-72
2022/03/02 10:53:50;;;;;;;11.28;5.10;;;;;;;;;;1683349;84;21119;-74
2022/03/02 10:56:17;;;;;;;14.85;6.00;;;;;;;;;;1681356;83;21040;-74
2022/03/02 10:58:44;;;;;;;10.58;4.67;;;;;;;;;;1713779;82;21088;-73
2022/03/02 11:01:11;;;;;;;9.33;4.45;;;;;;;;;;1703030;82;21654;-74
2022/03/02 11:03:37;;;;;;;10.32;5.22;;;;;;;;;;1704471;84;21039;-73
2022/03/02 11:06:04;;;;;;;8.30;4.85;;;;;;;;;;1705790;81;21078;-73
2022/03/02 11:08:30;;;;;;;12.73;5.72;;;;;;;;;;1766573;79;21057;-74
2022/03/02 11:10:56;;;;;;;8.63;4.30;;;;;;;;;;1787246;79;20981;-73
2022/03/02 11:13:23;;;;;;;11.30;5.03;;;;;;;;;;1797178;79;21017;-73
2022/03/02 11:15:51;;;;;;;9.65;4.72;;;;;;;;;;1763369;81;21083;-73
2022/03/02 11:18:20;;;;;;;11.50;5.50;;;;;;;;;;1769725;79;21029;-73
2022/03/02 11:20:54;;;;;;;8.68;3.90;;;;;;;;;;1764907;81;21108;-73
2022/03/02 11:23:22;;;;;;;10.05;5.10;;;;;;;;;;1768131;79;21049;-73
2022/03/02 11:25:49;;;;;;;10.10;5.15;;;;;;;;;;1755838;81;21100;-75
2022/03/02 11:28:19;;;;;;;8.13;4.40;;;;;;;;;;1750228;81;21028;-72
2022/03/02 11:30:48;;;;;;;7.97;3.85;;;;;;;;;;1763280;81;21025;-73
2022/03/02 11:33:15;;;;;;;6.12;3.35;;;;;;;;;;1761762;81;21076;-73
2022/03/02 11:35:42;;;;;;;10.93;4.58;;;;;;;;;;1747045;81;21004;-74
2022/03/02 11:38:12;;;;;;;8.08;4.25;;;;;;;;;;1762267;81;21076;-73
2022/03/02 11:40:39;;;;;;;10.05;5.12;;;;;;;;;;1764965;81;20990;-73
2022/03/02 11:43:15;;;;;;;7.62;4.35;;;;;;;;;;1764321;81;21579;-74
2022/03/02 11:45:41;;;;;;;9.30;5.12;;;;;;;;;;1776844;79;21386;-72
2022/03/02 11:48:13;;;;;;;9.23;4.17;;;;;;;;;;1783182;80;21882;-73
2022/03/02 11:50:41;;;;;;;8.15;4.15;;;;;;;;;;1753863;81;21509;-73
2022/03/02 11:53:08;;;;;;;8.45;4.70;;;;;;;;;;1760721;81;21069;-73
2022/03/02 11:55:34;;;;;;;8.90;3.98;;;;;;;;;;1774160;80;21040;-73
2022/03/02 11:58:01;;;;;;;7.62;3.98;;;;;;;;;;1746351;81;21029;-73
2022/03/02 12:00:28;;;;;;;8.53;4.28;;;;;;;;;;1709954;82;21020;-75
2022/03/02 12:02:58;;;;;;;9.90;3.98;;;;;;;;;;1710655;80;21068;-73
2022/03/02 12:05:27;;;;;;;9.25;4.58;;;;;;;;;;1750132;80;21063;-73
2022/03/02 12:08:01;;;;;;;7.78;4.42;;;;;;;;;;1776527;79;21020;-73
2022/03/02 12:10:30;;;;;;;7.33;3.87;;;;;;;;;;1775668;80;21089;-73
2022/03/02 12:12:56;;;;;;;8.63;4.17;;;;;;;;;;1778335;80;21600;-74
2022/03/02 12:15:23;;;;;;;7.50;3.55;;;;;;;;;;1775663;80;21756;-73
2022/03/02 12:17:49;;;;;;;8.10;4.17;;;;;;;;;;1775980;79;21035;-73
2022/03/02 12:20:17;;;;;;;7.80;3.58;;;;;;;;;;1771575;80;21069;-74
2022/03/02 12:22:45;;;;;;;6.92;3.20;;;;;;;;;;1739443;80;21032;-73
2022/03/02 12:25:13;;;;;;;7.42;4.42;;;;;;;;;;1785000;80;21552;-73
2022/03/02 12:27:40;;;;;;;7.00;3.62;;;;;;;;;;1776475;80;21037;-72
2022/03/02 12:30:07;;;;;;;8.40;3.60;;;;;;;;;;1771281;80;21001;-73
2022/03/02 12:32:34;;;;;;;7.83;4.22;;;;;;;;;;1770340;80;21033;-74
2022/03/02 12:35:01;;;;;;;8.33;3.90;;;;;;;;;;1732588;80;21035;-72
2022/03/02 12:37:29;;;;;;;7.05;3.75;;;;;;;;;;1771164;80;21104;-74
2022/03/02 12:39:55;;;;;;;7.42;3.67;;;;;;;;;;1771088;80;21551;-73
2022/03/02 12:42:21;;;;;;;8.18;3.80;;;;;;;;;;1783064;80;21032;-73
2022/03/02 12:44:49;;;;;;;5.35;3.08;;;;;;;;;;1780819;80;21461;-72
2022/03/02 12:47:17;;;;;;;6.65;3.60;;;;;;;;;;1767319;80;21009;-73
2022/03/02 12:49:43;;;;;;;6.58;3.75;;;;;;;;;;1763703;80;21056;-73
2022/03/02 12:52:10;;;;;;;9.15;4.55;;;;;;;;;;1771515;80;21037;-74
2022/03/02 12:54:37;;;;;;;7.55;3.83;;;;;;;;;;1772230;80;21587;-73
2022/03/02 12:57:04;;;;;;;7.45;3.58;;;;;;;;;;1735571;80;21007;-75
2022/03/02 12:59:31;;;;;;;8.63;3.80;;;;;;;;;;1744927;80;21111;-72
2022/03/02 13:01:58;;;;;;;8.05;4.50;;;;;;;;;;1761356;80;21045;-72
2022/03/02 13:04:25;;;;;;;8.65;3.92;;;;;;;;;;1770620;81;21414;-73
2022/03/02 13:06:55;;;;;;;6.90;3.65;;;;;;;;;;1770661;81;22146;-73
2022/03/02 13:09:22;;;;;;;5.75;3.55;;;;;;;;;;1759814;81;21002;-73
2022/03/02 13:11:48;;;;;;;8.90;4.40;;;;;;;;;;1758258;81;21076;-74
2022/03/02 13:14:34;;;;;;;7.25;3.52;;;;;;;;;;1759518;81;21092;-73
2022/03/02 13:17:13;;;;;;;6.03;3.58;;;;;;;;;;1737020;80;21087;-74
2022/03/02 13:19:46;;;;;;;9.85;4.62;;;;;;;;;;1736459;80;21008;-73
2022/03/02 13:22:26;;;;;;;8.20;3.83;;;;;;;;;;1733450;81;21536;-73
2022/03/02 13:24:53;;;;;;;6.30;3.70;;;;;;;;;;1767547;80;21026;-73
2022/03/02 13:27:22;;;;;;;8.55;3.80;;;;;;;;;;1764964;81;21065;-74
2022/03/02 13:29:53;;;;;;;7.87;4.67;;;;;;;;;;1764379;80;21012;-74
2022/03/02 13:32:19;;;;;;;7.28;3.85;;;;;;;;;;1762195;81;21029;-73
2022/03/02 13:34:56;;;;;;;6.80;4.05;;;;;;;;;;1761819;81;21029;-74
2022/03/02 13:37:22;;;;;;;5.20;3.50;;;;;;;;;;1735606;80;21017;-74
2022/03/02 13:39:48;;;;;;;5.40;3.35;;;;;;;;;;1750116;80;20995;-74
2022/03/02 13:42:21;;;;;;;4.92;3.10;;;;;;;;;;1766087;80;21063;-72
2022/03/02 13:44:47;;;;;;;6.12;3.65;;;;;;;;;;1758353;81;21465;-74
2022/03/02 13:47:15;;;;;;;7.62;3.75;;;;;;;;;;1762127;80;21140;-73
2022/03/02 13:49:57;;;;;;;8.73;3.33;;;;;;;;;;1737135;81;21528;-73
2022/03/02 13:52:30;;;;;;;7.37;3.42;;;;;;;;;;1754143;81;20996;-74
2022/03/02 13:54:56;;;;;;;5.78;3.02;;;;;;;;;;1736428;81;21009;-74
2022/03/02 13:57:23;;;;;;;6.42;3.83;;;;;;;;;;1742698;81;21036;-73
2022/03/02 13:59:49;;;;;;;5.47;3.20;;;;;;;;;;1733997;81;21073;-73
2022/03/02 14:02:16;;;;;;;7.10;3.65;;;;;;;;;;1764217;80;21099;-73
2022/03/02 14:04:44;;;;;;;7.05;3.47;;;;;;;;;;1750568;80;21302;-74
2022/03/02 14:07:11;;;;;;;8.70;3.77;;;;;;;;;;1772749;79;21497;-73
2022/03/02 14:09:37;;;;;;;6.70;4.20;;;;;;;;;;1749874;80;20954;-74
2022/03/02 14:12:03;;;;;;;7.35;4.00;;;;;;;;;;1738705;82;21083;-73
2022/03/02 14:14:32;;;;;;;6.42;3.67;;;;;;;;;;1777543;80;21542;-74
2022/03/02 14:16:59;;;;;;;8.55;4.20;;;;;;;;;;1731188;81;21644;-73
2022/03/02 14:19:26;;;;;;;8.18;3.77;;;;;;;;;;1775542;80;20994;-73
2022/03/02 14:21:53;;;;;;;8.20;3.98;;;;;;;;;;1744703;80;21064;-74
2022/03/02 14:24:20;;;;;;;10.48;4.37;;;;;;;;;;1745859;80;21013;-72
2022/03/02 14:26:50;;;;;;;6.50;4.10;;;;;;;;;;1751123;81;21018;-72
2022/03/02 14:29:20;;;;;;;4.42;3.10;;;;;;;;;;1778387;80;21030;-74
2022/03/02 14:31:56;;;;;;;6.65;4.17;;;;;;;;;;1780247;79;20997;-73
2022/03/02 14:34:22;;;;;;;7.42;3.80;;;;;;;;;;1770511;80;21049;-74
2022/03/02 14:36:50;;;;;;;6.08;3.50;;;;;;;;;;1728605;82;21056;-73
2022/03/02 14:39:16;;;;;;;8.03;3.08;;;;;;;;;;1756913;80;21016;-73
2022/03/02 14:41:44;;;;;;;5.62;3.45;;;;;;;;;;1755357;82;21086;-74